Pagrindinis puslapis
METAR-TAF:

METAR-TAF

Oro uostai :

Japas, Mikronezija

platuma: 09-29N, ilguma: 138-05E, Aukštis: 28 m

Dabartinis oras

Ataskaita buvo paskelbta 1 valandą ir 10 minutes, ne 15:52 UTC
Vėjas 3 kt nuo kintamojo kryptimis
Temperatūra 27°C
Drėgmė 94%
Slėgis 1010 hPa
Matomumas: 19.3 km
Mažai debesys ne aukštis 1600 ft
Išsisklaidę debesys ne aukštis 30000 ft

METAR: PTYA 071552Z VRB03KT 12SM FEW016 SCT300 27/26 A2983 RMK SLP103 T02720255

Laikas: 03:02 (17:02 UTC)

Prognozė

Ataskaita buvo paskelbta 5 valandos ir 42 minutes, ne 11:20 UTC
Prognozė galioja nuo 07 metu 12 UTC su 08 metu 12 UTC
Vėjas 7 kt iš Rytų
Matomumas: 10 km
Išsisklaidę debesys ne aukštis 1600 ft
Išsisklaidę debesys ne aukštis 13000 ft

TAF: PTYA 071120Z 0712/0812 09007KT P6SM SCT016 SCT130

Orai ataskaitas ir orų prognozės (METAR, TAF).

turimą stotys yra geltonos ir raudonos taškus žemėlapyje.

Perkelti pele per norėdami pamatyti stoties vardą.

Tada spustelėkite, norėdami matyti oro stebėjimo ir prognozės.

Norėdami pakeisti žemėlapį: spustelėkite ant žalios mygtukų su juodo kryžiaus žemyn,; žalią mygtuką su brūkšneliu, jei norite nutolinti; arba žalių rodyklių gretimoms žemėlapius.


METAR-TAF: